North Chili, New York
Current Conditions -  °F | °C
As of 7:54 AM on Saturday 25 Oct 2014 (Local Time) from KROC Reporting Station
Overcast Overcast  
Wind Chill: 50°   Ceiling: 4600
Heat Index: 50°   Visibility: 8mi
Dew Point: 45°   Wind: 8mph
Humidity: 83%   Direction: 220°SW
Pressure: 29.83"   Gusts: NA
Location:  43.12°N, 77.8°W
Report Text: KROC 251154Z 22007KT 8SM OVC046 10/07 A2983 RMK AO2 SLP106 T01000072 10100 20083 56008
Loading
Personal Weather Stations






























Interactive Weather Map
Tropical Storm Tracking
New forecast layout! Learn more

10-Day Weather Forecast

Advertisements
Track Severe Weather on mobile